Time;durP1;ratioP1;P1;durP2;ratioP2;P2;SDS_P1;SDS_P2;PMS_P1;PMS_P2;Temp;Humidity;BMP_temperature;BMP_pressure;BME280_temperature;BME280_humidity;BME280_pressure;Samples;Min_cycle;Max_cycle;Signal;HPM_P1;HPM_P2
2023/06/28 00:02:01;;;;;;;4.22;2.80;;;18.10;35.10;;;;;;4992959;28;20217;-87
2023/06/28 00:04:28;;;;;;;6.28;3.20;;;17.90;37.50;;;;;;5013486;28;20570;-87
2023/06/28 00:10:16;;;;;;;7.53;3.10;;;17.70;45.30;;;;;;5014039;28;20258;-87
2023/06/28 00:12:43;;;;;;;4.07;2.63;;;17.60;50.80;;;;;;5014143;28;20203;-88
2023/06/28 00:15:11;;;;;;;5.50;3.15;;;17.40;53.50;;;;;;4996663;28;20563;-87
2023/06/28 00:23:47;;;;;;;3.95;2.80;;;17.10;59.50;;;;;;5012799;28;20192;-86
2023/06/28 00:26:14;;;;;;;4.72;2.95;;;17.00;63.40;;;;;;5018283;28;20214;-87
2023/06/28 00:28:41;;;;;;;6.88;2.90;;;16.90;69.40;;;;;;5034135;28;20202;-86
2023/06/28 00:31:09;;;;;;;7.78;3.13;;;16.90;59.60;;;;;;5014715;28;20229;-87
2023/06/28 00:33:37;;;;;;;6.20;2.97;;;16.80;60.30;;;;;;5005016;28;20249;-88
2023/06/28 00:36:05;;;;;;;3.92;2.75;;;16.70;62.30;;;;;;5008025;28;20258;-89
2023/06/28 00:38:34;;;;;;;6.10;3.00;;;16.50;63.20;;;;;;5012737;28;20333;-87
2023/06/28 00:41:01;;;;;;;4.97;3.00;;;16.40;68.30;;;;;;5007816;28;20214;-89
2023/06/28 00:43:28;;;;;;;4.28;3.30;;;16.40;74.10;;;;;;5012721;28;20211;-88
2023/06/28 00:45:55;;;;;;;5.70;3.25;;;16.20;78.20;;;;;;5012225;28;20274;-88
2023/06/28 00:48:23;;;;;;;6.28;3.17;;;16.10;82.70;;;;;;4992786;28;20605;-88
2023/06/28 00:50:52;;;;;;;4.97;3.25;;;16.20;80.90;;;;;;4992835;28;20224;-87
2023/06/28 00:53:19;;;;;;;6.45;3.42;;;16.10;82.40;;;;;;4989673;28;20207;-87
2023/06/28 00:55:47;;;;;;;5.38;3.10;;;15.90;83.90;;;;;;5009318;28;20561;-87
2023/06/28 00:58:24;;;;;;;5.38;3.35;;;15.80;85.90;;;;;;4985316;28;20211;-87
2023/06/28 01:01:07;;;;;;;4.78;3.88;;;15.70;89.40;;;;;;5004709;28;20287;-88
2023/06/28 01:03:35;;;;;;;7.25;3.50;;;15.60;89.10;;;;;;5011691;28;20195;-92
2023/06/28 01:11:33;;;;;;;9.13;4.07;;;15.70;86.60;;;;;;5012050;28;20202;-88
2023/06/28 01:14:00;;;;;;;8.50;3.72;;;15.70;88.20;;;;;;5012832;28;20203;-87
2023/06/28 01:16:27;;;;;;;6.03;3.90;;;15.60;88.10;;;;;;4992179;28;20212;-89
2023/06/28 01:18:55;;;;;;;5.80;3.88;;;15.60;90.40;;;;;;5003574;28;20219;-89
2023/06/28 01:24:10;;;;;;;6.68;4.15;;;15.60;91.60;;;;;;4989869;28;20203;-88
2023/06/28 01:26:52;;;;;;;7.40;4.13;;;15.60;91.60;;;;;;4998885;28;20225;-89
2023/06/28 01:29:27;;;;;;;5.97;3.78;;;15.60;91.60;;;;;;4997321;28;20211;-87
2023/06/28 01:31:56;;;;;;;8.70;4.38;;;15.60;91.60;;;;;;5014092;28;20207;-86
2023/06/28 01:34:24;;;;;;;7.25;4.20;;;15.60;91.60;;;;;;5000298;28;20207;-87
2023/06/28 01:37:01;;;;;;;5.63;4.10;;;15.50;91.60;;;;;;4996761;28;20214;-88
2023/06/28 01:39:58;;;;;;;7.35;4.15;;;15.40;91.60;;;;;;5015355;28;20298;-88
2023/06/28 01:42:25;;;;;;;6.20;4.40;;;15.30;92.30;;;;;;5004922;28;20289;-86
2023/06/28 01:44:52;;;;;;;9.85;4.50;;;15.20;93.70;;;;;;5017577;28;20252;-87
2023/06/28 01:47:19;;;;;;;6.75;4.57;;;15.20;94.60;;;;;;4997227;28;20210;-88
2023/06/28 01:49:46;;;;;;;5.65;4.20;;;15.20;94.70;;;;;;5019275;28;20215;-89
2023/06/28 01:52:13;;;;;;;6.13;4.22;;;15.20;94.40;;;;;;5014519;28;20204;-89
2023/06/28 01:54:40;;;;;;;6.03;4.10;;;15.10;93.90;;;;;;5022887;28;20211;-87
2023/06/28 01:57:09;;;;;;;7.72;4.75;;;15.00;94.60;;;;;;5017915;28;20707;-88
2023/06/28 01:59:36;;;;;;;4.93;4.47;;;15.00;95.00;;;;;;4997056;28;20199;-88
2023/06/28 02:02:03;;;;;;;5.45;4.68;;;14.90;96.10;;;;;;5015513;28;20199;-88
2023/06/28 02:04:30;;;;;;;6.03;4.22;;;15.00;96.90;;;;;;4997663;28;20203;-88
2023/06/28 02:06:57;;;;;;;6.95;4.93;;;15.00;96.90;;;;;;4966586;28;20543;-89
2023/06/28 02:09:24;;;;;;;5.68;4.57;;;15.10;96.90;;;;;;4963098;28;20268;-89
2023/06/28 02:11:51;;;;;;;5.63;4.72;;;15.10;96.90;;;;;;4995666;28;20211;-86
2023/06/28 02:14:20;;;;;;;6.47;4.68;;;15.10;96.90;;;;;;5019433;28;20195;-87
2023/06/28 02:16:47;;;;;;;6.22;4.80;;;15.00;96.90;;;;;;4996554;28;20207;-88
2023/06/28 02:24:25;;;;;;;7.18;5.07;;;14.80;97.80;;;;;;5371345;23;20250;-88
2023/06/28 02:26:53;;;;;;;7.30;4.32;;;14.80;98.10;;;;;;4998167;28;20223;-87
2023/06/28 02:29:34;;;;;;;7.88;4.65;;;14.90;98.20;;;;;;5015329;28;20208;-88
2023/06/28 02:32:23;;;;;;;5.90;5.15;;;14.90;98.10;;;;;;4962646;28;20200;-87
2023/06/28 02:38:43;;;;;;;7.57;5.07;;;14.80;97.90;;;;;;4974432;28;20657;-89
2023/06/28 02:41:42;;;;;;;6.63;5.10;;;14.70;98.00;;;;;;4983922;28;20210;-88
2023/06/28 02:47:37;;;;;;;5.47;4.90;;;14.70;98.10;;;;;;5010111;28;20183;-86
2023/06/28 02:51:07;;;;;;;7.30;4.93;;;14.70;98.00;;;;;;5002126;28;20211;-86
2023/06/28 02:53:34;;;;;;;8.13;5.05;;;14.60;98.40;;;;;;5023325;28;20191;-87
2023/06/28 02:56:01;;;;;;;6.57;5.15;;;14.60;98.60;;;;;;4980486;28;20211;-87
2023/06/28 02:58:40;;;;;;;6.07;4.97;;;14.60;98.90;;;;;;5014855;28;20198;-86
2023/06/28 03:01:09;;;;;;;5.72;4.95;;;14.60;98.70;;;;;;5021680;28;20241;-88
2023/06/28 03:03:43;;;;;;;6.93;4.82;;;14.60;98.90;;;;;;5015658;28;20195;-88
2023/06/28 03:06:31;;;;;;;8.00;4.97;;;14.60;99.20;;;;;;5001255;28;20711;-89
2023/06/28 03:08:57;;;;;;;6.30;4.75;;;14.60;99.20;;;;;;5015143;28;20195;-89
2023/06/28 03:11:25;;;;;;;5.80;5.10;;;14.50;99.50;;;;;;5014735;28;20211;-86
2023/06/28 04:02:16;;;;;;;6.63;4.80;;;14.40;99.90;;;;;;4975096;28;20183;-87
2023/06/28 04:08:27;;;;;;;5.60;4.78;;;14.40;99.90;;;;;;4974914;28;20168;-89
2023/06/28 04:14:20;;;;;;;4.82;4.25;;;14.50;99.40;;;;;;4992973;28;20171;-88
2023/06/28 04:16:58;;;;;;;5.28;4.10;;;14.50;99.90;;;;;;4987279;28;20200;-88
2023/06/28 04:19:25;;;;;;;6.55;4.35;;;14.50;99.40;;;;;;4964978;28;20228;-85
2023/06/28 04:21:52;;;;;;;6.43;4.40;;;14.50;99.10;;;;;;4938610;29;20228;-87
2023/06/28 04:24:27;;;;;;;5.15;4.60;;;14.40;99.40;;;;;;4957567;28;20209;-85
2023/06/28 04:26:53;;;;;;;6.43;4.22;;;14.40;99.90;;;;;;4966288;28;20611;-88
2023/06/28 04:29:22;;;;;;;6.15;4.55;;;14.40;99.90;;;;;;4951412;28;20231;-86
2023/06/28 04:31:49;;;;;;;5.82;4.05;;;14.50;99.20;;;;;;4965434;28;20225;-86
2023/06/28 04:38:04;;;;;;;6.95;4.10;;;14.50;99.10;;;;;;4944671;29;20285;-89
2023/06/28 04:47:23;;;;;;;7.63;4.13;;;14.40;99.20;;;;;;4920050;29;20202;-89
2023/06/28 04:50:10;;;;;;;5.63;4.30;;;14.40;99.40;;;;;;4919006;29;20238;-87
2023/06/28 04:53:20;;;;;;;5.78;4.35;;;14.50;99.20;;;;;;4888353;29;20548;-88
2023/06/28 04:59:19;;;;;;;9.02;4.57;;;14.50;99.50;;;;;;4938576;29;20262;-88
2023/06/28 05:09:17;;;;;;;7.30;4.43;;;14.40;99.80;;;;;;4978147;28;20196;-89
2023/06/28 05:14:29;;;;;;;6.40;4.07;;;14.50;99.30;;;;;;4959993;28;20228;-89
2023/06/28 05:17:09;;;;;;;4.78;3.97;;;14.40;98.50;;;;;;4942026;29;20229;-88
2023/06/28 05:19:40;;;;;;;5.20;4.13;;;14.40;98.70;;;;;;4953008;29;20618;-88
2023/06/28 05:22:07;;;;;;;6.07;3.90;;;14.40;99.20;;;;;;4947820;28;20624;-89
2023/06/28 05:24:34;;;;;;;7.20;3.90;;;14.50;99.50;;;;;;4955470;28;20196;-89
2023/06/28 05:30:37;;;;;;;7.43;4.03;;;14.50;98.20;;;;;;4946007;29;20201;-89
2023/06/28 05:33:10;;;;;;;8.35;4.00;;;14.50;98.30;;;;;;4952195;28;20208;-90
2023/06/28 05:35:39;;;;;;;5.65;4.13;;;14.50;98.90;;;;;;4986804;28;20283;-90
2023/06/28 05:38:07;;;;;;;5.22;4.10;;;14.60;98.40;;;;;;4959840;28;20209;-89
2023/06/28 05:40:34;;;;;;;5.65;3.90;;;14.60;98.90;;;;;;4977590;28;20204;-89
2023/06/28 05:45:55;;;;;;;4.75;3.90;;;14.50;98.90;;;;;;4955254;28;20205;-89
2023/06/28 05:48:22;;;;;;;6.20;4.07;;;14.60;98.80;;;;;;4946580;28;20545;-89
2023/06/28 05:50:49;;;;;;;7.05;3.95;;;14.60;99.10;;;;;;4953417;28;20221;-88
2023/06/28 05:53:16;;;;;;;5.47;3.88;;;14.60;98.70;;;;;;4964864;28;20482;-81
2023/06/28 05:55:43;;;;;;;5.03;4.07;;;14.70;98.40;;;;;;4960343;28;20209;-81
2023/06/28 05:58:10;;;;;;;5.03;4.05;;;14.70;98.50;;;;;;4964223;28;20220;-89
2023/06/28 06:00:38;;;;;;;4.78;4.20;;;14.70;98.60;;;;;;4942106;28;20284;-89
2023/06/28 06:03:05;;;;;;;4.95;3.88;;;14.80;98.40;;;;;;4944461;28;20209;-90
2023/06/28 06:05:32;;;;;;;7.05;4.25;;;14.80;98.50;;;;;;4968114;28;20229;-87
2023/06/28 06:07:59;;;;;;;9.95;4.07;;;14.80;98.90;;;;;;4932463;28;20211;-85
2023/06/28 06:10:26;;;;;;;6.95;4.18;;;14.80;98.50;;;;;;4959869;28;20482;-84
2023/06/28 06:12:54;;;;;;;6.47;3.60;;;14.80;98.40;;;;;;4961222;28;20212;-83
2023/06/28 06:15:21;;;;;;;6.00;4.65;;;15.00;98.30;;;;;;4959099;28;20288;-89
2023/06/28 06:20:33;;;;;;;5.40;3.90;;;15.00;98.90;;;;;;4959698;28;20749;-87
2023/06/28 06:23:01;;;;;;;4.70;3.80;;;15.10;98.60;;;;;;4947582;28;20201;-88
2023/06/28 06:25:27;;;;;;;8.18;4.60;;;15.20;98.20;;;;;;4968666;28;20220;-86
2023/06/28 06:27:54;;;;;;;4.43;3.67;;;15.20;98.60;;;;;;4960406;28;20200;-88
2023/06/28 06:30:22;;;;;;;4.43;3.78;;;15.30;98.20;;;;;;4970141;28;20564;-85
2023/06/28 06:32:51;;;;;;;5.22;4.15;;;15.40;98.60;;;;;;4967194;28;20205;-88
2023/06/28 06:35:18;;;;;;;4.18;3.78;;;15.40;98.40;;;;;;4959570;28;20208;-88
2023/06/28 06:37:45;;;;;;;4.35;3.95;;;15.40;98.40;;;;;;4966957;28;20557;-90
2023/06/28 06:40:13;;;;;;;4.88;3.85;;;15.50;98.30;;;;;;4967046;28;20211;-89
2023/06/28 06:42:40;;;;;;;5.72;3.67;;;15.60;97.60;;;;;;4967175;28;20252;-87
2023/06/28 06:45:08;;;;;;;4.15;3.55;;;15.70;97.10;;;;;;4969570;28;20585;-88
2023/06/28 06:47:38;;;;;;;6.20;3.40;;;15.70;97.10;;;;;;4957127;28;20703;-90
2023/06/28 06:50:09;;;;;;;5.47;4.05;;;15.80;97.10;;;;;;4975380;28;20204;-90
2023/06/28 06:52:36;;;;;;;4.93;3.47;;;15.70;97.10;;;;;;4935952;29;20228;-90
2023/06/28 06:55:03;;;;;;;13.75;9.13;;;15.80;97.50;;;;;;4968580;28;20556;-84
2023/06/28 06:57:30;;;;;;;20.25;16.17;;;15.90;96.50;;;;;;4972132;28;20200;-89
2023/06/28 06:59:57;;;;;;;4.25;3.60;;;16.20;95.50;;;;;;4967974;28;21382;-88
2023/06/28 07:02:24;;;;;;;8.60;5.28;;;16.20;94.10;;;;;;4944738;28;20663;-86
2023/06/28 07:04:51;;;;;;;13.98;11.00;;;16.20;94.10;;;;;;4970140;28;20197;-89
2023/06/28 07:07:23;;;;;;;4.57;3.55;;;16.30;94.00;;;;;;4966625;28;20288;-88
2023/06/28 07:12:31;;;;;;;3.95;3.00;;;16.40;93.60;;;;;;4965482;28;20240;-90
2023/06/28 07:14:58;;;;;;;6.22;4.40;;;16.50;93.60;;;;;;4935634;28;20705;-90
2023/06/28 07:17:25;;;;;;;7.40;4.05;;;16.60;94.00;;;;;;4935875;28;20216;-89
2023/06/28 07:19:52;;;;;;;8.48;5.28;;;16.70;91.90;;;;;;4970320;28;20642;-90
2023/06/28 07:22:20;;;;;;;3.83;2.83;;;16.70;92.20;;;;;;4963653;28;20606;-81
2023/06/28 07:24:47;;;;;;;3.80;2.97;;;16.90;91.90;;;;;;4965436;28;20215;-86
2023/06/28 07:27:14;;;;;;;6.32;3.20;;;16.80;90.50;;;;;;4968422;28;20541;-91
2023/06/28 07:29:41;;;;;;;3.45;3.00;;;16.90;90.80;;;;;;4939226;28;20202;-90
2023/06/28 07:32:09;;;;;;;3.17;2.78;;;16.90;90.50;;;;;;4961098;28;20216;-89
2023/06/28 07:34:37;;;;;;;6.43;2.92;;;16.90;92.00;;;;;;4969538;28;20210;-88
2023/06/28 07:37:05;;;;;;;3.78;3.00;;;17.00;91.90;;;;;;4969958;28;20201;-89
2023/06/28 07:39:34;;;;;;;5.18;2.80;;;17.10;92.00;;;;;;4986693;28;20223;-89
2023/06/28 07:42:02;;;;;;;5.00;3.13;;;17.20;92.00;;;;;;4966729;28;20696;-87
2023/06/28 07:44:29;;;;;;;5.85;3.15;;;17.30;90.50;;;;;;4965576;28;20250;-88
2023/06/28 07:46:56;;;;;;;6.35;3.28;;;17.30;90.40;;;;;;4980847;28;20660;-85
2023/06/28 07:49:23;;;;;;;5.05;3.67;;;17.30;89.80;;;;;;4969111;28;20270;-91
2023/06/28 07:51:50;;;;;;;3.35;2.95;;;17.50;88.50;;;;;;4974531;28;20310;-88
2023/06/28 07:54:17;;;;;;;4.80;3.20;;;17.60;85.80;;;;;;4981084;28;20211;-88
2023/06/28 07:56:45;;;;;;;5.68;2.95;;;17.90;83.00;;;;;;4969927;28;20687;-88
2023/06/28 07:59:12;;;;;;;4.80;2.83;;;18.00;83.70;;;;;;4979723;28;20207;-89
2023/06/28 08:01:39;;;;;;;5.30;3.20;;;18.10;79.50;;;;;;4983349;28;20291;-87
2023/06/28 08:04:06;;;;;;;3.88;2.88;;;18.20;82.00;;;;;;4983890;28;20215;-87
2023/06/28 08:06:33;;;;;;;4.65;3.50;;;18.50;75.60;;;;;;4980124;28;20208;-89
2023/06/28 08:08:59;;;;;;;5.75;3.20;;;18.50;77.80;;;;;;4967880;28;20204;-90
2023/06/28 08:11:27;;;;;;;4.28;3.00;;;18.70;74.40;;;;;;4967862;28;20220;-89
2023/06/28 08:16:37;;;;;;;3.58;2.80;;;18.90;73.30;;;;;;4990037;28;20207;-89
2023/06/28 08:19:04;;;;;;;3.40;2.78;;;18.90;69.60;;;;;;4983405;28;20224;-90
2023/06/28 08:21:33;;;;;;;4.32;2.50;;;18.90;70.90;;;;;;4990029;28;20214;-89
2023/06/28 08:24:00;;;;;;;3.78;2.78;;;18.90;68.60;;;;;;4971379;28;20199;-89
2023/06/28 08:26:27;;;;;;;3.05;2.75;;;19.00;68.30;;;;;;4966812;28;20223;-88
2023/06/28 08:29:01;;;;;;;6.65;2.90;;;19.20;61.60;;;;;;4992459;28;20204;-87
2023/06/28 08:31:36;;;;;;;5.68;2.65;;;19.40;58.90;;;;;;4987583;28;20220;-88
2023/06/28 08:34:03;;;;;;;4.72;2.90;;;19.50;55.40;;;;;;4983571;28;20200;-85
2023/06/28 08:36:30;;;;;;;4.05;2.80;;;19.70;55.60;;;;;;4988585;28;20200;-84
2023/06/28 08:38:57;;;;;;;4.00;2.80;;;19.90;54.10;;;;;;4989328;28;20211;-87
2023/06/28 08:41:27;;;;;;;6.43;3.20;;;20.00;52.60;;;;;;4985709;28;20207;-87
2023/06/28 08:43:56;;;;;;;3.95;2.60;;;20.00;51.50;;;;;;4960084;28;20299;-86
2023/06/28 08:46:25;;;;;;;4.47;3.00;;;20.30;50.70;;;;;;4979591;28;20223;-87
2023/06/28 08:48:53;;;;;;;4.70;2.85;;;20.50;49.00;;;;;;4965195;28;20200;-88
2023/06/28 08:51:21;;;;;;;5.65;3.20;;;20.50;47.50;;;;;;4963920;28;20228;-85
2023/06/28 08:53:50;;;;;;;5.22;3.30;;;20.60;45.10;;;;;;4980940;28;20215;-88
2023/06/28 08:56:17;;;;;;;5.72;3.22;;;21.00;41.70;;;;;;4959434;28;20205;-86
2023/06/28 08:58:47;;;;;;;4.28;2.70;;;21.30;37.00;;;;;;4987743;28;20817;-84
2023/06/28 09:01:16;;;;;;;5.57;2.80;;;21.60;34.20;;;;;;4977756;28;20558;-89
2023/06/28 09:03:44;;;;;;;3.80;2.60;;;21.60;33.40;;;;;;4961223;28;20266;-84
2023/06/28 09:06:11;;;;;;;4.13;2.40;;;21.50;33.30;;;;;;4979094;28;20223;-88
2023/06/28 09:08:39;;;;;;;4.88;2.95;;;21.50;33.40;;;;;;4977672;28;20215;-86
2023/06/28 09:11:06;;;;;;;3.75;2.70;;;21.40;32.60;;;;;;4977065;28;20201;-88
2023/06/28 09:13:33;;;;;;;4.85;2.58;;;21.50;30.80;;;;;;4962777;28;20712;-88
2023/06/28 09:16:01;;;;;;;5.45;2.40;;;21.80;30.60;;;;;;4960713;28;20204;-84
2023/06/28 09:18:29;;;;;;;3.92;2.58;;;22.20;31.60;;;;;;4977973;28;20224;-87
2023/06/28 09:20:57;;;;;;;5.28;2.78;;;22.20;28.70;;;;;;4988041;28;20203;-84
2023/06/28 09:23:25;;;;;;;4.68;2.70;;;22.20;28.50;;;;;;4981417;28;20214;-85
2023/06/28 09:25:52;;;;;;;7.10;4.13;;;22.10;29.40;;;;;;4982926;28;20196;-84
2023/06/28 09:28:20;;;;;;;35.47;18.55;;;22.50;28.50;;;;;;4968816;28;20192;-88
2023/06/28 09:30:52;;;;;;;8.00;4.75;;;23.00;26.80;;;;;;4983254;28;20200;-88
2023/06/28 09:33:20;;;;;;;52.80;34.10;;;23.30;21.70;;;;;;4951344;28;20228;-85
2023/06/28 09:35:48;;;;;;;11.15;7.20;;;23.00;25.30;;;;;;4983410;28;20205;-83
2023/06/28 09:38:15;;;;;;;4.85;2.90;;;22.70;24.70;;;;;;4981190;28;20201;-83
2023/06/28 09:40:42;;;;;;;7.05;2.70;;;22.50;25.80;;;;;;4984091;28;20223;-84
2023/06/28 09:43:15;;;;;;;6.55;3.25;;;22.40;23.80;;;;;;4982922;28;20240;-84
2023/06/28 09:45:43;;;;;;;7.10;2.65;;;22.10;25.00;;;;;;4983392;28;20283;-85
2023/06/28 09:48:10;;;;;;;12.45;7.65;;;21.80;26.30;;;;;;4985836;28;20295;-88
2023/06/28 09:50:38;;;;;;;19.67;15.48;;;21.50;25.40;;;;;;4988472;28;20203;-84
2023/06/28 09:53:10;;;;;;;3.88;2.90;;;21.60;27.30;;;;;;4989064;28;20230;-84
2023/06/28 09:55:42;;;;;;;5.53;2.70;;;21.50;27.70;;;;;;4987071;28;20229;-83
2023/06/28 09:58:10;;;;;;;11.43;4.72;;;21.60;24.30;;;;;;4974643;28;20602;-85
2023/06/28 10:00:38;;;;;;;4.85;3.03;;;21.60;24.30;;;;;;4984065;28;20224;-86
2023/06/28 10:03:07;;;;;;;4.53;2.55;;;22.40;20.00;;;;;;4984151;28;20208;-86
2023/06/28 10:05:35;;;;;;;6.68;4.55;;;22.80;19.00;;;;;;4974166;28;20200;-86
2023/06/28 10:08:04;;;;;;;9.73;8.00;;;23.40;19.90;;;;;;4991303;28;20226;-88
2023/06/28 10:10:35;;;;;;;7.70;5.15;;;23.90;21.40;;;;;;4989681;28;22381;-89
2023/06/28 10:13:03;;;;;;;5.18;3.72;;;24.40;18.10;;;;;;4962735;28;20271;-89
2023/06/28 10:15:37;;;;;;;6.45;2.50;;;24.60;17.30;;;;;;4980601;28;20668;-84
2023/06/28 10:18:05;;;;;;;3.80;3.00;;;24.70;16.70;;;;;;4983643;28;20223;-85
2023/06/28 10:20:32;;;;;;;11.45;10.23;;;24.80;15.60;;;;;;4972781;28;20258;-85
2023/06/28 10:23:00;;;;;;;7.35;5.53;;;24.70;16.40;;;;;;4980312;28;20203;-87
2023/06/28 10:25:27;;;;;;;4.38;2.88;;;24.30;16.80;;;;;;4985656;28;20206;-85
2023/06/28 10:27:56;;;;;;;15.15;13.55;;;24.00;15.30;;;;;;4990037;28;20196;-85
2023/06/28 10:30:23;;;;;;;6.50;5.90;;;23.80;17.00;;;;;;4985851;28;20210;-84
2023/06/28 10:32:51;;;;;;;3.92;3.40;;;23.50;18.30;;;;;;4984020;28;20215;-87
2023/06/28 10:35:18;;;;;;;3.38;2.97;;;23.80;15.40;;;;;;4955666;28;20224;-86
2023/06/28 10:37:46;;;;;;;4.18;2.25;;;23.80;16.60;;;;;;4981729;28;20200;-89
2023/06/28 10:40:14;;;;;;;3.78;2.83;;;23.40;18.40;;;;;;4988770;28;20203;-87
2023/06/28 10:42:41;;;;;;;3.83;2.50;;;23.40;18.50;;;;;;4980741;28;20200;-86
2023/06/28 10:45:10;;;;;;;7.20;3.35;;;23.40;16.80;;;;;;4988122;28;20206;-86
2023/06/28 10:47:38;;;;;;;2.85;2.55;;;23.50;16.30;;;;;;4981387;28;20215;-87
2023/06/28 10:50:09;;;;;;;5.30;2.90;;;24.20;18.60;;;;;;4989178;28;20211;-87
2023/06/28 10:52:37;;;;;;;5.03;2.78;;;24.80;16.30;;;;;;4975743;28;20223;-89
2023/06/28 10:55:04;;;;;;;7.25;2.53;;;25.30;15.20;;;;;;4996811;28;20249;-90
2023/06/28 10:57:38;;;;;;;5.45;2.72;;;25.30;14.30;;;;;;4987706;28;20498;-84
2023/06/28 11:00:10;;;;;;;4.47;2.53;;;25.10;14.20;;;;;;4966030;28;20298;-83
2023/06/28 11:02:54;;;;;;;4.70;2.58;;;25.00;14.20;;;;;;4985900;28;20199;-82
2023/06/28 11:05:38;;;;;;;4.28;2.58;;;24.80;14.10;;;;;;4979630;28;20192;-83
2023/06/28 11:08:10;;;;;;;6.05;2.60;;;24.70;14.00;;;;;;4982143;28;20652;-87
2023/06/28 11:10:38;;;;;;;4.35;2.60;;;24.80;16.80;;;;;;4984334;28;20211;-88
2023/06/28 11:13:08;;;;;;;107.40;96.95;;;24.80;14.10;;;;;;4981813;28;20283;-87
2023/06/28 11:15:35;;;;;;;3.95;2.88;;;24.90;14.10;;;;;;4987187;28;20199;-85
2023/06/28 11:18:12;;;;;;;10.40;8.18;;;24.70;15.50;;;;;;4965020;28;20219;-87
2023/06/28 11:20:48;;;;;;;6.07;4.78;;;24.50;14.30;;;;;;4991185;28;20211;-88
2023/06/28 11:23:24;;;;;;;4.13;2.85;;;24.00;15.60;;;;;;4965684;28;20615;-85
2023/06/28 11:25:56;;;;;;;6.22;3.30;;;23.50;16.00;;;;;;4982463;28;20200;-84
2023/06/28 11:28:28;;;;;;;3.75;2.20;;;23.50;17.90;;;;;;4981669;28;20207;-89
2023/06/28 11:30:55;;;;;;;4.40;2.65;;;23.60;13.30;;;;;;4982429;28;20219;-87
2023/06/28 11:33:24;;;;;;;5.10;2.28;;;23.50;13.50;;;;;;4972634;28;20243;-89
2023/06/28 11:35:51;;;;;;;3.63;2.30;;;23.30;15.80;;;;;;4984572;28;20668;-87
2023/06/28 11:38:19;;;;;;;5.00;2.33;;;23.60;15.50;;;;;;4992734;28;20199;-89
2023/06/28 11:40:47;;;;;;;3.05;2.40;;;23.50;14.30;;;;;;4994070;28;20195;-88
2023/06/28 11:43:14;;;;;;;5.07;2.00;;;23.40;14.80;;;;;;4985136;28;20804;-90
2023/06/28 11:45:41;;;;;;;3.03;2.05;;;23.20;15.20;;;;;;4987562;28;20204;-88
2023/06/28 11:48:11;;;;;;;4.00;2.55;;;23.00;14.60;;;;;;4973306;28;20605;-89
2023/06/28 11:50:40;;;;;;;2.72;2.10;;;22.90;16.50;;;;;;4987724;28;20246;-86
2023/06/28 11:53:07;;;;;;;5.38;2.35;;;22.70;16.40;;;;;;4981262;28;20216;-90
2023/06/28 11:55:34;;;;;;;7.53;2.35;;;22.70;16.70;;;;;;4977410;28;20203;-88
2023/06/28 11:58:02;;;;;;;3.35;2.00;;;22.50;17.20;;;;;;4984611;28;20596;-88
2023/06/28 12:00:38;;;;;;;6.57;2.42;;;22.40;20.00;;;;;;4969267;28;20223;-87
2023/06/28 12:03:06;;;;;;;4.47;2.40;;;22.80;16.40;;;;;;4983858;28;20203;-88
2023/06/28 12:05:33;;;;;;;4.72;2.20;;;22.90;17.20;;;;;;4987049;28;20196;-86
2023/06/28 12:08:01;;;;;;;3.35;2.25;;;23.00;17.40;;;;;;4984595;28;20235;-90
2023/06/28 12:10:36;;;;;;;5.05;2.40;;;23.20;18.20;;;;;;4980317;28;20201;-87
2023/06/28 12:13:03;;;;;;;5.40;2.20;;;24.00;14.70;;;;;;4963016;28;20223;-88
2023/06/28 12:15:31;;;;;;;2.88;1.92;;;24.40;13.80;;;;;;4968802;28;20202;-89
2023/06/28 12:17:58;;;;;;;3.30;2.30;;;24.30;13.70;;;;;;4952602;28;20222;-88
2023/06/28 12:20:25;;;;;;;4.35;2.15;;;24.30;13.70;;;;;;4991669;28;20202;-90
2023/06/28 12:22:55;;;;;;;3.15;2.10;;;24.20;13.00;;;;;;4982802;28;20668;-90
2023/06/28 12:25:28;;;;;;;3.58;2.22;;;24.20;13.70;;;;;;4996752;28;20200;-89
2023/06/28 12:28:14;;;;;;;3.10;1.75;;;24.10;13.70;;;;;;4981709;28;20666;-88
2023/06/28 12:30:41;;;;;;;5.25;3.00;;;24.10;13.60;;;;;;4994574;28;20245;-88
2023/06/28 12:33:09;;;;;;;6.20;2.80;;;23.60;13.30;;;;;;4950461;28;20282;-89
2023/06/28 12:35:36;;;;;;;5.22;2.28;;;23.20;15.30;;;;;;4972057;28;20195;-89
2023/06/28 12:38:05;;;;;;;4.28;2.05;;;23.10;16.00;;;;;;4968034;28;20195;-91
2023/06/28 12:40:35;;;;;;;3.75;2.20;;;23.40;15.20;;;;;;4967119;28;20255;-91
2023/06/28 12:43:12;;;;;;;3.60;2.30;;;23.70;15.50;;;;;;4991524;28;20200;-88
2023/06/28 12:45:47;;;;;;;4.03;2.20;;;24.20;13.70;;;;;;4964374;28;20791;-89
2023/06/28 12:48:16;;;;;;;3.60;2.00;;;24.40;13.80;;;;;;4969900;28;20207;-90
2023/06/28 12:50:43;;;;;;;4.68;2.47;;;24.20;15.20;;;;;;4977132;28;20283;-90
2023/06/28 12:53:11;;;;;;;4.82;2.63;;;24.20;13.70;;;;;;4982979;28;20223;-87
2023/06/28 12:55:40;;;;;;;5.25;2.10;;;24.00;14.20;;;;;;4983589;28;20242;-88
2023/06/28 12:58:07;;;;;;;4.50;2.67;;;23.70;13.80;;;;;;4983315;28;20204;-90
2023/06/28 13:00:35;;;;;;;2.65;2.25;;;23.40;14.00;;;;;;4993130;28;20187;-89
2023/06/28 13:03:02;;;;;;;2.53;2.30;;;23.10;15.40;;;;;;4993778;28;20203;-87
2023/06/28 13:05:29;;;;;;;3.72;2.00;;;22.90;16.00;;;;;;4988838;28;20232;-90
2023/06/28 13:07:57;;;;;;;6.90;2.20;;;22.90;15.90;;;;;;4974549;28;20200;-86
2023/06/28 13:10:25;;;;;;;3.70;2.10;;;23.30;14.70;;;;;;4976072;28;20665;-88
2023/06/28 13:12:56;;;;;;;3.72;2.10;;;23.60;13.30;;;;;;4991331;28;20231;-88
2023/06/28 13:15:23;;;;;;;2.53;2.05;;;24.00;12.10;;;;;;5000511;28;20196;-91
2023/06/28 13:17:50;;;;;;;2.75;2.10;;;24.30;13.70;;;;;;4972190;28;20224;-89
2023/06/28 13:20:17;;;;;;;3.65;2.15;;;24.60;11.90;;;;;;4977293;28;20193;-89
2023/06/28 13:22:44;;;;;;;3.08;1.95;;;24.70;12.80;;;;;;4980887;28;20210;-88
2023/06/28 13:25:10;;;;;;;3.33;1.92;;;25.00;11.30;;;;;;4984274;28;20196;-84
2023/06/28 13:27:37;;;;;;;2.40;1.90;;;25.10;12.00;;;;;;4968856;28;20203;-88
2023/06/28 13:30:07;;;;;;;3.10;2.10;;;25.10;9.20;;;;;;4989418;28;20204;-87
2023/06/28 13:32:35;;;;;;;3.20;1.83;;;25.30;11.20;;;;;;4989480;28;20207;-85
2023/06/28 13:35:01;;;;;;;5.38;2.25;;;25.30;11.00;;;;;;5000039;28;20230;-89
2023/06/28 13:40:10;;;;;;;3.55;2.50;;;25.20;10.00;;;;;;5015291;28;20183;-93
2023/06/28 13:42:37;;;;;;;7.00;5.80;;;25.20;9.50;;;;;;4996288;28;20210;-89
2023/06/28 13:45:08;;;;;;;4.05;2.35;;;25.00;11.30;;;;;;4965399;28;20722;-88
2023/06/28 13:47:35;;;;;;;3.92;2.25;;;24.40;11.80;;;;;;4983366;28;20196;-86
2023/06/28 13:50:01;;;;;;;3.92;2.10;;;24.00;13.30;;;;;;4985641;28;20204;-84
2023/06/28 13:55:09;;;;;;;4.95;2.10;;;23.30;13.10;;;;;;4975191;28;20200;-85
2023/06/28 13:57:38;;;;;;;6.25;2.50;;;23.00;12.90;;;;;;4988597;28;20649;-88
2023/06/28 14:00:08;;;;;;;3.78;2.22;;;22.70;12.70;;;;;;4985709;28;20196;-90
2023/06/28 14:02:35;;;;;;;3.65;1.73;;;22.70;12.70;;;;;;4997309;28;20546;-88
2023/06/28 14:05:02;;;;;;;2.03;1.80;;;22.60;12.60;;;;;;4994117;28;20222;-88
2023/06/28 14:07:29;;;;;;;4.53;2.08;;;22.60;12.60;;;;;;4974355;28;20197;-90
2023/06/28 14:09:56;;;;;;;2.30;2.08;;;22.50;12.60;;;;;;4973163;28;20199;-88
2023/06/28 14:12:23;;;;;;;4.72;2.20;;;22.40;12.50;;;;;;4985290;28;20223;-89
2023/06/28 14:14:49;;;;;;;3.72;1.90;;;22.50;13.40;;;;;;4978530;28;20203;-94
2023/06/28 14:17:18;;;;;;;3.25;2.05;;;22.50;12.60;;;;;;4977898;28;20199;-88
2023/06/28 14:19:46;;;;;;;3.53;2.10;;;22.60;12.60;;;;;;4978726;28;20699;-86
2023/06/28 14:22:12;;;;;;;3.70;2.13;;;22.50;13.30;;;;;;4991968;28;20877;-92
2023/06/28 14:27:25;;;;;;;4.40;1.90;;;22.80;12.80;;;;;;5022819;28;20218;-90
2023/06/28 14:29:53;;;;;;;3.65;2.30;;;23.30;13.10;;;;;;5004744;28;20740;-92
2023/06/28 14:32:31;;;;;;;3.75;2.05;;;23.80;11.40;;;;;;5033427;28;20183;-91
2023/06/28 14:35:00;;;;;;;3.35;2.30;;;23.90;11.80;;;;;;5034951;28;20214;-91
2023/06/28 14:42:49;;;;;;;3.20;2.08;;;23.90;12.70;;;;;;5011777;28;20176;-92
2023/06/28 14:45:17;;;;;;;3.30;2.15;;;24.10;11.90;;;;;;5033950;28;20267;-89
2023/06/28 14:47:45;;;;;;;3.38;2.05;;;24.10;13.50;;;;;;5013981;28;20206;-87
2023/06/28 14:50:13;;;;;;;3.00;2.10;;;24.20;13.70;;;;;;5000656;28;20200;-90
2023/06/28 14:52:39;;;;;;;4.10;2.20;;;24.20;11.80;;;;;;4997721;28;20629;-87
2023/06/28 14:55:07;;;;;;;4.47;2.40;;;24.20;11.70;;;;;;5006175;28;20234;-90
2023/06/28 14:57:34;;;;;;;2.47;2.22;;;24.20;11.80;;;;;;5023123;28;20204;-90
2023/06/28 15:00:01;;;;;;;13.35;3.78;;;24.30;11.90;;;;;;5025083;28;20243;-90
2023/06/28 15:02:28;;;;;;;2.58;1.92;;;24.30;13.00;;;;;;5020324;28;20196;-88
2023/06/28 15:04:56;;;;;;;5.38;2.40;;;24.30;11.90;;;;;;5023729;28;20191;-88
2023/06/28 15:07:24;;;;;;;3.13;1.85;;;24.10;11.40;;;;;;5006624;28;20198;-92
2023/06/28 15:12:28;;;;;;;3.17;2.10;;;24.10;11.60;;;;;;5117308;23;20228;-90
2023/06/28 15:14:54;;;;;;;3.58;2.10;;;24.00;12.40;;;;;;5008543;28;20218;-92
2023/06/28 15:19:53;;;;;;;4.63;1.77;;;24.30;11.60;;;;;;5031491;28;20234;-89